createdAt,value
2017-12-31T00:00:26.392Z,0.50
2017-12-31T00:02:53.885Z,0.50
2017-12-31T00:05:21.450Z,0.70
2017-12-31T00:07:49.001Z,1.13
2017-12-31T00:10:16.557Z,3.43
2017-12-31T00:12:44.855Z,0.97
2017-12-31T00:15:12.436Z,1.60
2017-12-31T00:17:40.750Z,1.00
2017-12-31T00:20:08.313Z,1.10
2017-12-31T00:22:35.878Z,1.00
2017-12-31T00:25:03.444Z,0.60
2017-12-31T00:27:30.946Z,2.40
2017-12-31T00:29:59.264Z,1.37
2017-12-31T00:32:26.758Z,1.67
2017-12-31T00:34:54.307Z,1.77
2017-12-31T00:37:21.844Z,1.00
2017-12-31T00:39:49.402Z,4.17
2017-12-31T00:42:16.932Z,2.80
2017-12-31T00:44:45.248Z,3.13
2017-12-31T00:47:12.739Z,6.20
2017-12-31T00:49:40.294Z,2.67
2017-12-31T00:52:07.828Z,3.80
2017-12-31T00:54:35.337Z,0.80
2017-12-31T00:57:03.636Z,1.37
2017-12-31T00:59:31.146Z,2.20
2017-12-31T01:01:58.676Z,6.67
2017-12-31T01:04:26.186Z,1.60
2017-12-31T01:06:54.520Z,3.77
2017-12-31T01:09:22.034Z,4.37
2017-12-31T01:11:49.598Z,3.03
2017-12-31T01:14:17.103Z,3.23
2017-12-31T01:16:44.622Z,2.57
2017-12-31T01:19:12.118Z,2.70
2017-12-31T01:21:39.626Z,2.20
2017-12-31T01:24:07.123Z,4.70
2017-12-31T01:26:34.630Z,5.57
2017-12-31T01:29:02.918Z,5.07
2017-12-31T01:31:30.429Z,3.03
2017-12-31T01:33:57.934Z,2.23
2017-12-31T01:36:25.448Z,7.53
2017-12-31T01:38:52.942Z,3.17
2017-12-31T01:41:21.224Z,3.43
2017-12-31T01:43:48.919Z,4.63
2017-12-31T01:46:16.457Z,2.50
2017-12-31T01:49:03.833Z,3.83
2017-12-31T01:51:31.429Z,4.37
2017-12-31T01:53:58.994Z,5.07
2017-12-31T01:56:26.501Z,5.93
2017-12-31T01:58:54.010Z,2.77
2017-12-31T02:01:21.618Z,6.40
2017-12-31T02:03:49.169Z,7.40
2017-12-31T02:06:16.658Z,4.60
2017-12-31T02:08:44.923Z,5.13
2017-12-31T02:11:12.443Z,9.57
2017-12-31T02:13:39.939Z,6.30
2017-12-31T02:16:08.957Z,7.63
2017-12-31T02:18:37.218Z,2.30
2017-12-31T02:21:04.734Z,4.33
2017-12-31T02:23:32.226Z,3.50
2017-12-31T02:25:59.742Z,7.73
2017-12-31T02:28:27.241Z,3.83
2017-12-31T02:30:54.758Z,6.03
2017-12-31T02:33:22.255Z,4.97
2017-12-31T02:35:49.773Z,9.33
2017-12-31T02:38:17.269Z,3.90
2017-12-31T02:40:45.561Z,8.77
2017-12-31T02:43:13.826Z,6.43
2017-12-31T02:45:42.854Z,3.33
2017-12-31T02:48:10.410Z,6.50
2017-12-31T02:50:37.970Z,1.43
2017-12-31T02:53:05.475Z,4.33
2017-12-31T02:55:33.011Z,4.00
2017-12-31T02:58:00.511Z,3.23
2017-12-31T03:00:28.024Z,3.90
2017-12-31T03:02:55.519Z,6.70
2017-12-31T03:05:23.009Z,4.80
2017-12-31T03:07:51.285Z,4.83
2017-12-31T03:10:19.546Z,8.27
2017-12-31T03:12:47.826Z,16.47
2017-12-31T03:15:16.093Z,8.47
2017-12-31T03:17:44.388Z,4.13
2017-12-31T03:20:12.658Z,6.73
2017-12-31T03:22:40.938Z,3.80
2017-12-31T03:25:09.198Z,2.00
2017-12-31T03:27:36.711Z,8.60
2017-12-31T03:30:04.216Z,12.33
2017-12-31T03:32:32.494Z,5.37
2017-12-31T03:35:00.754Z,2.03
2017-12-31T03:37:29.035Z,3.93
2017-12-31T03:39:56.626Z,9.20
2017-12-31T03:42:24.142Z,1.63
2017-12-31T03:44:51.630Z,8.23
2017-12-31T03:47:19.910Z,2.47
2017-12-31T03:49:48.175Z,2.93
2017-12-31T03:52:16.453Z,4.83
2017-12-31T03:54:44.710Z,5.70
2017-12-31T03:57:12.985Z,3.47
2017-12-31T03:59:40.479Z,6.97
2017-12-31T04:02:07.994Z,6.40
2017-12-31T04:04:35.494Z,3.53
2017-12-31T04:07:03.010Z,1.40
2017-12-31T04:09:30.538Z,4.00
2017-12-31T04:11:58.041Z,4.27
2017-12-31T04:14:27.062Z,2.80
2017-12-31T04:16:54.622Z,3.90
2017-12-31T04:19:22.182Z,3.80
2017-12-31T04:21:49.689Z,5.47
2017-12-31T04:24:17.185Z,2.17
2017-12-31T04:26:44.713Z,4.10
2017-12-31T04:29:12.213Z,2.20
2017-12-31T04:31:39.720Z,3.37
2017-12-31T04:34:07.986Z,4.70
2017-12-31T04:36:35.498Z,1.93
2017-12-31T04:39:03.766Z,1.70
2017-12-31T04:41:32.046Z,1.23
2017-12-31T04:44:00.310Z,3.40
2017-12-31T04:46:28.640Z,2.43
2017-12-31T04:48:56.158Z,3.10
2017-12-31T04:51:23.691Z,3.57
2017-12-31T04:53:51.286Z,4.53
2017-12-31T04:56:18.799Z,2.80
2017-12-31T04:58:46.295Z,0.80
2017-12-31T05:01:14.578Z,1.33
2017-12-31T05:03:42.074Z,3.10
2017-12-31T05:06:09.583Z,3.13
2017-12-31T05:08:37.841Z,2.70
2017-12-31T05:11:05.350Z,1.87
2017-12-31T05:13:32.848Z,1.50
2017-12-31T05:16:00.342Z,3.23
2017-12-31T05:18:27.863Z,1.33
2017-12-31T05:20:55.358Z,1.03
2017-12-31T05:23:22.869Z,0.60
2017-12-31T05:25:50.374Z,2.57
2017-12-31T05:28:17.886Z,1.20
2017-12-31T05:30:45.385Z,2.13
2017-12-31T05:33:12.894Z,4.67
2017-12-31T05:35:40.385Z,4.97
2017-12-31T05:38:08.661Z,1.37
2017-12-31T05:40:36.926Z,3.93
2017-12-31T05:43:04.438Z,2.30
2017-12-31T05:45:31.937Z,1.30
2017-12-31T05:47:59.449Z,4.30
2017-12-31T05:50:26.942Z,2.30
2017-12-31T05:52:54.443Z,1.40
2017-12-31T05:55:21.953Z,2.57
2017-12-31T05:57:49.442Z,2.03
2017-12-31T06:00:17.717Z,1.03
2017-12-31T06:02:45.979Z,2.07
2017-12-31T06:05:13.493Z,2.83
2017-12-31T06:07:40.983Z,1.53
2017-12-31T06:10:08.500Z,0.93
2017-12-31T06:12:35.995Z,5.47
2017-12-31T06:15:03.513Z,1.37
2017-12-31T06:17:31.027Z,0.60
2017-12-31T06:19:59.322Z,4.70
2017-12-31T06:22:27.604Z,0.63
2017-12-31T06:24:55.882Z,1.87
2017-12-31T06:27:23.377Z,1.33
2017-12-31T06:29:50.882Z,3.47
2017-12-31T06:32:19.150Z,1.33
2017-12-31T06:34:46.671Z,3.03
2017-12-31T06:37:14.933Z,1.07
2017-12-31T06:39:42.451Z,1.00
2017-12-31T06:42:10.712Z,0.60
2017-12-31T06:44:38.239Z,1.53
2017-12-31T06:47:05.742Z,2.73
2017-12-31T06:49:34.014Z,2.07
2017-12-31T06:52:02.302Z,1.43
2017-12-31T06:54:30.571Z,4.40
2017-12-31T06:56:58.856Z,1.17
2017-12-31T06:59:27.118Z,1.77
2017-12-31T07:01:55.393Z,1.47
2017-12-31T07:04:23.660Z,0.93
2017-12-31T07:06:51.177Z,1.27
2017-12-31T07:09:18.677Z,2.10
2017-12-31T07:11:46.191Z,1.43
2017-12-31T07:14:13.686Z,5.70
2017-12-31T07:16:41.203Z,2.30
2017-12-31T07:19:08.698Z,1.27
2017-12-31T07:21:36.212Z,3.50
2017-12-31T07:24:03.706Z,1.93
2017-12-31T07:26:31.213Z,1.53
2017-12-31T07:28:58.714Z,1.30
2017-12-31T07:31:26.221Z,2.47
2017-12-31T07:33:54.482Z,4.20
2017-12-31T07:36:22.764Z,3.57
2017-12-31T07:38:51.026Z,2.93
2017-12-31T07:41:18.541Z,1.43
2017-12-31T07:43:46.039Z,3.53
2017-12-31T07:46:13.546Z,3.10
2017-12-31T07:48:41.056Z,1.50
2017-12-31T07:51:08.582Z,8.70
2017-12-31T07:53:36.072Z,4.80
2017-12-31T07:56:03.566Z,2.93
2017-12-31T07:58:31.077Z,3.57
2017-12-31T08:00:58.571Z,2.80
2017-12-31T08:03:26.110Z,5.47
2017-12-31T08:05:53.612Z,1.47
2017-12-31T08:08:21.125Z,4.67
2017-12-31T08:10:48.625Z,5.37
2017-12-31T08:13:16.145Z,5.73
2017-12-31T08:15:44.410Z,2.93
2017-12-31T08:18:11.933Z,3.37
2017-12-31T08:20:39.426Z,5.43
2017-12-31T08:23:06.933Z,5.83
2017-12-31T08:25:34.430Z,2.47
2017-12-31T08:28:01.951Z,11.10
2017-12-31T08:30:29.454Z,3.03
2017-12-31T08:32:56.974Z,10.40
2017-12-31T08:35:24.475Z,11.73
2017-12-31T08:37:51.985Z,3.60
2017-12-31T08:40:19.478Z,2.53
2017-12-31T08:42:46.981Z,2.33
2017-12-31T08:45:14.482Z,2.30
2017-12-31T08:47:42.008Z,3.30
2017-12-31T08:50:09.507Z,7.40
2017-12-31T08:52:37.006Z,2.50
2017-12-31T08:55:05.290Z,2.23
2017-12-31T08:57:32.794Z,5.07
2017-12-31T09:00:01.073Z,3.43
2017-12-31T09:02:28.575Z,4.27
2017-12-31T09:04:56.094Z,3.97
2017-12-31T09:07:23.590Z,3.80
2017-12-31T09:09:51.943Z,2.80
2017-12-31T09:12:20.227Z,3.73
2017-12-31T09:14:48.515Z,4.20
2017-12-31T09:17:16.782Z,2.83
2017-12-31T09:19:45.123Z,1.43
2017-12-31T09:22:12.679Z,2.20
2017-12-31T09:24:40.202Z,2.60
2017-12-31T09:27:07.705Z,3.90
2017-12-31T09:29:35.227Z,2.50
2017-12-31T09:32:02.734Z,2.27
2017-12-31T09:34:30.255Z,2.77
2017-12-31T09:36:57.770Z,4.07
2017-12-31T09:39:26.057Z,4.77
2017-12-31T09:41:54.326Z,2.40
2017-12-31T09:44:22.610Z,2.93
2017-12-31T09:46:50.138Z,2.43
2017-12-31T09:49:17.666Z,2.40
2017-12-31T09:51:45.165Z,1.57
2017-12-31T09:54:12.667Z,4.03
2017-12-31T09:56:40.186Z,2.10
2017-12-31T09:59:08.451Z,1.87
2017-12-31T10:01:35.971Z,1.10
2017-12-31T10:04:03.480Z,2.13
2017-12-31T10:06:31.766Z,2.37
2017-12-31T10:09:00.027Z,1.67
2017-12-31T10:11:28.649Z,1.27
2017-12-31T10:13:56.155Z,4.83
2017-12-31T10:16:23.670Z,0.83
2017-12-31T10:18:51.173Z,1.17
2017-12-31T10:21:18.685Z,3.13
2017-12-31T10:23:46.177Z,2.30
2017-12-31T10:26:13.692Z,2.67
2017-12-31T10:28:41.194Z,1.77
2017-12-31T10:31:08.718Z,2.37
2017-12-31T10:33:36.214Z,7.97
2017-12-31T10:36:03.730Z,1.70
2017-12-31T10:38:31.244Z,1.37
2017-12-31T10:40:59.041Z,7.00
2017-12-31T10:43:26.537Z,2.33
2017-12-31T10:45:54.053Z,1.60
2017-12-31T10:48:21.790Z,1.80
2017-12-31T10:50:49.391Z,5.57
2017-12-31T10:53:16.901Z,2.70
2017-12-31T10:55:44.419Z,3.33
2017-12-31T10:58:11.938Z,4.40
2017-12-31T11:00:40.218Z,1.33
2017-12-31T11:03:08.486Z,2.93
2017-12-31T11:05:36.773Z,2.60
2017-12-31T11:08:04.275Z,4.63
2017-12-31T11:10:31.791Z,1.20
2017-12-31T11:12:59.318Z,2.70
2017-12-31T11:15:27.630Z,1.97
2017-12-31T11:17:55.154Z,1.20
2017-12-31T11:20:22.646Z,2.10
2017-12-31T11:22:50.164Z,2.43
2017-12-31T11:25:17.660Z,1.97
2017-12-31T11:27:45.176Z,2.00
2017-12-31T11:30:12.679Z,2.13
2017-12-31T11:32:40.189Z,3.70
2017-12-31T11:35:07.687Z,1.43
2017-12-31T11:37:35.206Z,4.00
2017-12-31T11:40:02.698Z,2.10
2017-12-31T11:42:30.986Z,2.37
2017-12-31T11:44:58.508Z,2.80
2017-12-31T11:47:26.026Z,2.20
2017-12-31T11:49:53.641Z,2.10
2017-12-31T11:52:21.929Z,2.73
2017-12-31T11:54:50.202Z,2.03
2017-12-31T11:57:18.502Z,1.30
2017-12-31T11:59:46.040Z,1.47
2017-12-31T12:02:14.317Z,4.30
2017-12-31T12:04:42.578Z,0.87
2017-12-31T12:07:10.862Z,3.10
2017-12-31T12:09:39.121Z,1.73
2017-12-31T12:12:06.642Z,3.00
2017-12-31T12:14:34.137Z,1.90
2017-12-31T12:17:01.654Z,0.97
2017-12-31T12:19:29.145Z,1.07
2017-12-31T12:21:56.665Z,2.47
2017-12-31T12:24:25.141Z,4.83
2017-12-31T12:26:52.662Z,1.23
2017-12-31T12:29:20.980Z,5.43
2017-12-31T12:31:48.493Z,2.50
2017-12-31T12:34:16.753Z,1.70
2017-12-31T12:36:44.274Z,2.20
2017-12-31T12:39:11.816Z,2.60
2017-12-31T12:41:39.333Z,1.23
2017-12-31T12:44:06.841Z,3.50
2017-12-31T12:46:34.367Z,3.30
2017-12-31T12:49:02.634Z,2.50
2017-12-31T12:51:31.522Z,3.03
2017-12-31T12:53:59.020Z,4.27
2017-12-31T12:56:26.534Z,1.43
2017-12-31T12:58:54.080Z,2.30
2017-12-31T13:01:21.593Z,1.17
2017-12-31T13:03:49.088Z,2.40
2017-12-31T13:06:16.648Z,2.30
2017-12-31T13:08:44.151Z,1.17
2017-12-31T13:11:11.699Z,1.07
2017-12-31T13:13:39.982Z,0.93
2017-12-31T13:16:08.242Z,2.13
2017-12-31T13:18:36.522Z,1.43
2017-12-31T13:21:04.782Z,3.70
2017-12-31T13:23:32.299Z,6.10
2017-12-31T13:25:59.836Z,1.70
2017-12-31T13:28:27.349Z,1.63
2017-12-31T13:30:54.850Z,1.23
2017-12-31T13:33:22.379Z,1.27
2017-12-31T13:35:49.883Z,2.00
2017-12-31T13:38:17.405Z,1.30
2017-12-31T13:40:45.674Z,0.87
2017-12-31T13:43:13.195Z,2.20
2017-12-31T13:45:40.690Z,0.93
2017-12-31T13:48:08.202Z,2.70
2017-12-31T13:50:35.748Z,1.30
2017-12-31T13:53:03.321Z,2.27
2017-12-31T13:55:30.860Z,2.53
2017-12-31T13:57:58.425Z,2.10
2017-12-31T14:00:25.968Z,0.80
2017-12-31T14:02:53.482Z,2.17
2017-12-31T14:05:20.981Z,2.60
2017-12-31T14:07:48.498Z,5.60
2017-12-31T14:10:16.041Z,2.70
2017-12-31T14:12:43.559Z,3.17
2017-12-31T14:15:11.062Z,1.20
2017-12-31T14:17:38.619Z,1.70
2017-12-31T14:20:06.122Z,2.93
2017-12-31T14:22:34.408Z,0.80
2017-12-31T14:25:01.910Z,1.13
2017-12-31T14:27:29.446Z,1.20
2017-12-31T14:29:56.946Z,3.30
2017-12-31T14:32:24.458Z,2.67
2017-12-31T14:34:51.955Z,6.40
2017-12-31T14:37:19.481Z,1.70
2017-12-31T14:39:46.982Z,2.67
2017-12-31T14:42:14.504Z,2.73
2017-12-31T14:44:42.044Z,1.57
2017-12-31T14:47:09.918Z,2.20
2017-12-31T14:49:37.464Z,3.90
2017-12-31T14:52:05.024Z,3.43
2017-12-31T14:54:32.568Z,1.23
2017-12-31T14:57:00.887Z,1.80
2017-12-31T14:59:29.162Z,2.97
2017-12-31T15:01:56.723Z,3.13
2017-12-31T15:04:24.235Z,3.37
2017-12-31T15:06:52.575Z,2.10
2017-12-31T15:09:20.120Z,2.03
2017-12-31T15:11:47.621Z,1.40
2017-12-31T15:14:15.948Z,3.80
2017-12-31T15:16:43.450Z,2.10
2017-12-31T15:19:10.994Z,4.50
2017-12-31T15:21:38.533Z,1.47
2017-12-31T15:24:06.044Z,1.27
2017-12-31T15:26:33.538Z,2.03
2017-12-31T15:29:01.049Z,2.13
2017-12-31T15:31:30.096Z,1.30
2017-12-31T15:33:57.626Z,1.53
2017-12-31T15:36:25.169Z,2.07
2017-12-31T15:38:52.693Z,3.83
2017-12-31T15:41:20.196Z,2.17
2017-12-31T15:43:47.726Z,3.77
2017-12-31T15:46:15.277Z,4.13
2017-12-31T15:48:42.803Z,4.77
2017-12-31T15:51:10.299Z,3.50
2017-12-31T15:53:37.814Z,0.90
2017-12-31T15:56:05.314Z,2.70
2017-12-31T15:58:32.833Z,3.10
2017-12-31T16:01:00.352Z,6.80
2017-12-31T16:03:28.682Z,8.43
2017-12-31T16:05:56.443Z,8.10
2017-12-31T16:08:23.990Z,6.97
2017-12-31T16:10:51.486Z,4.47
2017-12-31T16:13:19.109Z,11.07
2017-12-31T16:15:46.653Z,5.97
2017-12-31T16:18:14.170Z,6.43
2017-12-31T16:20:42.080Z,3.70
2017-12-31T16:23:09.662Z,4.37
2017-12-31T16:25:37.265Z,8.67
2017-12-31T16:28:06.093Z,6.43
2017-12-31T16:30:33.657Z,2.73
2017-12-31T16:33:01.243Z,3.87
2017-12-31T16:35:29.579Z,2.03
2017-12-31T16:37:57.234Z,2.30
2017-12-31T16:40:25.767Z,4.37
2017-12-31T16:42:54.742Z,3.03
2017-12-31T16:45:24.617Z,3.63
2017-12-31T16:47:52.187Z,7.10
2017-12-31T16:50:19.720Z,6.13
2017-12-31T16:52:47.222Z,6.37
2017-12-31T16:55:14.714Z,8.80
2017-12-31T16:57:42.231Z,8.03
2017-12-31T17:00:09.769Z,5.83
2017-12-31T17:02:37.324Z,6.97
2017-12-31T17:05:04.814Z,5.90
2017-12-31T17:07:32.343Z,9.53
2017-12-31T17:09:59.844Z,10.53
2017-12-31T17:12:27.384Z,26.70
2017-12-31T17:14:54.901Z,41.47
2017-12-31T17:17:23.162Z,42.17
2017-12-31T17:19:50.673Z,39.27
2017-12-31T17:22:18.174Z,27.43
2017-12-31T17:24:45.685Z,86.90
2017-12-31T17:27:13.188Z,163.90
2017-12-31T17:29:40.710Z,70.43
2017-12-31T17:32:08.261Z,34.03
2017-12-31T17:34:35.781Z,27.13
2017-12-31T17:37:04.106Z,18.10
2017-12-31T17:39:31.617Z,16.10
2017-12-31T17:41:59.929Z,13.83
2017-12-31T17:44:27.493Z,11.33
2017-12-31T17:46:55.054Z,16.00
2017-12-31T17:49:22.582Z,122.97
2017-12-31T17:51:50.855Z,108.93
2017-12-31T17:54:18.373Z,34.77
2017-12-31T17:56:45.879Z,21.63
2017-12-31T17:59:13.398Z,14.80
2017-12-31T18:01:40.950Z,11.87
2017-12-31T18:04:08.462Z,17.50
2017-12-31T18:06:36.006Z,21.70
2017-12-31T18:09:04.290Z,22.07
2017-12-31T18:11:31.790Z,49.17
2017-12-31T18:13:59.320Z,291.90
2017-12-31T18:16:26.880Z,504.90
2017-12-31T18:18:54.448Z,466.00
2017-12-31T18:21:21.953Z,839.13
2017-12-31T18:23:49.524Z,724.83
2017-12-31T18:26:17.794Z,331.00
2017-12-31T18:28:46.090Z,298.42
2017-12-31T18:31:13.590Z,87.23
2017-12-31T18:33:41.147Z,205.23
2017-12-31T18:36:08.692Z,85.83
2017-12-31T18:38:36.204Z,50.47
2017-12-31T18:41:04.504Z,65.00
2017-12-31T18:43:32.030Z,22.80
2017-12-31T18:45:59.572Z,25.23
2017-12-31T18:48:27.142Z,14.63
2017-12-31T18:50:54.642Z,13.50
2017-12-31T18:53:22.153Z,15.40
2017-12-31T18:55:49.650Z,19.40
2017-12-31T18:58:17.207Z,21.97
2017-12-31T19:00:45.513Z,20.27
2017-12-31T19:03:13.035Z,75.73
2017-12-31T19:05:41.350Z,47.70
2017-12-31T19:08:08.869Z,18.90
2017-12-31T19:10:37.133Z,16.70
2017-12-31T19:13:04.674Z,14.07
2017-12-31T19:15:32.190Z,18.93
2017-12-31T19:17:59.682Z,17.63
2017-12-31T19:20:27.242Z,16.03
2017-12-31T19:22:54.792Z,60.93
2017-12-31T19:25:22.415Z,21.13
2017-12-31T19:27:49.924Z,31.20
2017-12-31T19:30:18.205Z,35.83
2017-12-31T19:32:45.701Z,21.20
2017-12-31T19:35:13.260Z,23.60
2017-12-31T19:37:40.770Z,23.80
2017-12-31T19:40:08.337Z,28.37
2017-12-31T19:42:35.829Z,29.43
2017-12-31T19:45:04.260Z,23.27
2017-12-31T19:47:31.762Z,32.17
2017-12-31T19:50:00.082Z,22.43
2017-12-31T19:52:27.581Z,21.50
2017-12-31T19:54:55.911Z,18.37
2017-12-31T19:57:23.470Z,16.47
2017-12-31T19:59:51.048Z,13.73
2017-12-31T20:02:18.584Z,18.93
2017-12-31T20:04:46.093Z,17.47
2017-12-31T20:07:13.735Z,13.50
2017-12-31T20:09:41.301Z,31.00
2017-12-31T20:12:08.948Z,66.20
2017-12-31T20:14:36.513Z,65.97
2017-12-31T20:17:04.018Z,54.57
2017-12-31T20:19:31.550Z,27.60
2017-12-31T20:21:59.900Z,19.60
2017-12-31T20:24:27.489Z,20.77
2017-12-31T20:26:55.763Z,24.93
2017-12-31T20:29:23.343Z,41.20
2017-12-31T20:31:51.605Z,29.57
2017-12-31T20:34:19.898Z,30.90
2017-12-31T20:36:47.405Z,17.23
2017-12-31T20:39:14.979Z,34.23
2017-12-31T20:41:42.529Z,27.40
2017-12-31T20:44:10.101Z,103.00
2017-12-31T20:46:37.647Z,35.93
2017-12-31T20:49:05.216Z,111.20
2017-12-31T20:51:32.709Z,136.97
2017-12-31T20:54:00.996Z,43.57
2017-12-31T20:56:28.544Z,53.90
2017-12-31T20:58:56.878Z,46.53
2017-12-31T21:01:24.445Z,76.00
2017-12-31T21:03:52.013Z,43.23
2017-12-31T21:06:19.566Z,15.80
2017-12-31T21:08:47.117Z,17.70
2017-12-31T21:11:14.668Z,15.73
2017-12-31T21:13:42.217Z,18.23
2017-12-31T21:16:09.734Z,34.43
2017-12-31T21:18:37.279Z,45.63
2017-12-31T21:21:05.564Z,40.10
2017-12-31T21:23:33.108Z,37.00
2017-12-31T21:26:00.678Z,26.17
2017-12-31T21:28:28.984Z,24.13
2017-12-31T21:30:56.544Z,21.53
2017-12-31T21:33:24.094Z,28.60
2017-12-31T21:35:51.657Z,21.30
2017-12-31T21:38:19.201Z,15.90
2017-12-31T21:40:46.769Z,15.63
2017-12-31T21:43:14.323Z,25.13
2017-12-31T21:45:41.895Z,16.93
2017-12-31T21:48:09.450Z,16.20
2017-12-31T21:50:36.965Z,18.20
2017-12-31T21:53:04.462Z,14.57
2017-12-31T21:55:32.025Z,13.77
2017-12-31T21:57:59.585Z,26.83
2017-12-31T22:00:27.101Z,22.73
2017-12-31T22:02:54.645Z,21.60
2017-12-31T22:05:22.208Z,30.50
2017-12-31T22:07:49.702Z,23.43
2017-12-31T22:10:17.987Z,15.10
2017-12-31T22:12:45.542Z,17.27
2017-12-31T22:15:13.105Z,19.23
2017-12-31T22:17:40.657Z,14.17
2017-12-31T22:20:08.987Z,14.90
2017-12-31T22:22:36.534Z,16.30
2017-12-31T22:25:04.916Z,17.93
2017-12-31T22:27:32.461Z,16.67
2017-12-31T22:30:00.031Z,22.47
2017-12-31T22:32:27.534Z,18.07
2017-12-31T22:34:55.115Z,14.53
2017-12-31T22:37:22.618Z,20.37
2017-12-31T22:39:50.191Z,21.60
2017-12-31T22:42:17.691Z,15.13
2017-12-31T22:44:45.205Z,13.90
2017-12-31T22:47:12.744Z,17.60
2017-12-31T22:49:40.254Z,15.10
2017-12-31T22:52:08.565Z,16.87
2017-12-31T22:54:36.082Z,16.23
2017-12-31T22:57:04.349Z,15.87
2017-12-31T22:59:32.676Z,23.77
2017-12-31T23:02:00.230Z,21.60
2017-12-31T23:04:27.725Z,74.47
2017-12-31T23:06:55.246Z,498.90
2017-12-31T23:09:22.794Z,590.03
2017-12-31T23:11:50.318Z,547.13
2017-12-31T23:14:18.590Z,534.67
2017-12-31T23:16:46.156Z,505.10
2017-12-31T23:19:14.427Z,441.53
2017-12-31T23:21:42.754Z,208.27
2017-12-31T23:24:10.258Z,320.70
2017-12-31T23:26:37.793Z,333.50
2017-12-31T23:29:05.340Z,176.27
2017-12-31T23:31:32.868Z,210.97
2017-12-31T23:34:00.422Z,276.33
2017-12-31T23:36:27.946Z,234.10
2017-12-31T23:38:55.492Z,181.03
2017-12-31T23:41:23.022Z,112.03
2017-12-31T23:43:50.522Z,78.57
2017-12-31T23:46:18.089Z,79.50
2017-12-31T23:48:46.362Z,59.60
2017-12-31T23:51:13.938Z,51.60
2017-12-31T23:53:42.203Z,49.43
2017-12-31T23:56:10.540Z,41.73
2017-12-31T23:58:38.038Z,44.97
